Time;durP1;ratioP1;P1;durP2;ratioP2;P2;SDS_P1;SDS_P2;PMS_P1;PMS_P2;Temp;Humidity;BMP_temperature;BMP_pressure;BME280_temperature;BME280_humidity;BME280_pressure;Samples;Min_cycle;Max_cycle;Signal;HPM_P1;HPM_P2
2023/08/09 00:00:08;;;;;;;8.98;1.63;;;13.20;99.90;;;;;;5054633;28;20052;-80
2023/08/09 00:02:54;;;;;;;6.60;2.35;;;13.10;99.90;;;;;;5054144;28;20408;-79
2023/08/09 00:05:40;;;;;;;6.00;1.20;;;13.10;99.90;;;;;;5072752;28;20044;-80
2023/08/09 00:08:26;;;;;;;5.65;1.10;;;13.10;99.90;;;;;;5072089;28;20056;-80
2023/08/09 00:11:12;;;;;;;6.47;1.15;;;13.00;99.90;;;;;;5071525;28;20516;-79
2023/08/09 00:13:59;;;;;;;8.02;1.48;;;13.00;99.90;;;;;;5072404;28;20087;-79
2023/08/09 00:16:45;;;;;;;11.32;1.92;;;13.00;99.90;;;;;;5073263;28;20052;-80
2023/08/09 00:19:31;;;;;;;6.78;1.27;;;13.00;99.90;;;;;;5054197;28;20052;-79
2023/08/09 00:22:17;;;;;;;6.68;1.67;;;13.00;99.90;;;;;;5072309;28;20076;-80
2023/08/09 00:25:04;;;;;;;7.85;1.20;;;13.00;99.90;;;;;;5072559;28;20131;-79
2023/08/09 00:27:50;;;;;;;6.53;1.20;;;13.00;99.90;;;;;;5072438;28;20068;-80
2023/08/09 00:30:37;;;;;;;4.18;0.90;;;12.90;99.90;;;;;;5072171;28;20049;-79
2023/08/09 00:33:23;;;;;;;4.40;1.10;;;13.00;99.90;;;;;;5072757;28;20084;-79
2023/08/09 00:36:09;;;;;;;6.35;1.10;;;12.90;99.90;;;;;;5074176;28;20131;-79
2023/08/09 00:38:56;;;;;;;10.73;2.92;;;12.90;99.90;;;;;;5041226;28;20071;-80
2023/08/09 00:41:42;;;;;;;5.72;1.65;;;12.90;99.90;;;;;;5057101;28;20040;-80
2023/08/09 00:44:28;;;;;;;7.57;1.10;;;12.90;99.90;;;;;;5058688;28;20052;-79
2023/08/09 00:47:15;;;;;;;8.50;1.27;;;12.90;99.90;;;;;;5072772;28;20095;-80
2023/08/09 00:50:02;;;;;;;8.80;1.52;;;12.90;99.90;;;;;;5073366;28;20442;-79
2023/08/09 00:52:49;;;;;;;12.02;1.42;;;12.90;99.90;;;;;;5071714;28;20519;-80
2023/08/09 00:55:35;;;;;;;5.43;1.50;;;12.90;99.90;;;;;;5054961;28;20141;-80
2023/08/09 00:58:21;;;;;;;6.82;1.35;;;12.80;99.90;;;;;;5040690;28;20040;-80
2023/08/09 01:01:07;;;;;;;10.40;1.33;;;12.80;99.90;;;;;;5070528;28;20118;-80
2023/08/09 01:03:54;;;;;;;5.60;1.50;;;12.80;99.90;;;;;;5040176;28;20175;-80
2023/08/09 01:06:53;;;;;;;6.45;1.35;;;12.80;99.90;;;;;;5072470;28;20111;-80
2023/08/09 01:10:12;;;;;;;8.20;1.60;;;12.80;99.90;;;;;;5069674;28;20567;-80
2023/08/09 01:13:06;;;;;;;9.93;1.10;;;12.80;99.90;;;;;;5072009;28;20090;-81
2023/08/09 01:15:53;;;;;;;5.50;1.73;;;12.80;99.90;;;;;;5072552;28;20049;-80
2023/08/09 01:18:42;;;;;;;8.45;1.75;;;12.80;99.90;;;;;;5056091;28;20054;-80
2023/08/09 01:21:30;;;;;;;4.47;1.05;;;12.80;99.90;;;;;;5072270;28;20044;-80
2023/08/09 01:24:17;;;;;;;10.85;2.05;;;12.80;99.90;;;;;;5071096;28;20377;-80
2023/08/09 01:27:03;;;;;;;8.68;1.50;;;12.80;99.90;;;;;;5070021;28;20048;-80
2023/08/09 01:29:50;;;;;;;10.00;2.13;;;12.90;99.90;;;;;;5070490;28;20051;-80
2023/08/09 01:32:38;;;;;;;11.63;2.25;;;12.90;99.90;;;;;;5071184;28;20059;-79
2023/08/09 01:35:27;;;;;;;9.10;1.75;;;13.00;99.90;;;;;;5070479;28;20044;-80
2023/08/09 01:38:22;;;;;;;8.15;1.33;;;13.20;99.90;;;;;;5071592;28;20463;-79
2023/08/09 01:41:08;;;;;;;6.43;0.80;;;13.50;99.90;;;;;;5053270;28;20048;-79
2023/08/09 01:43:59;;;;;;;4.30;0.90;;;13.70;99.90;;;;;;5070501;28;20051;-79
2023/08/09 01:46:46;;;;;;;7.80;1.20;;;13.80;99.90;;;;;;5043894;28;20048;-78
2023/08/09 01:49:32;;;;;;;4.47;1.00;;;13.90;99.90;;;;;;5047213;28;20150;-77
2023/08/09 01:52:19;;;;;;;4.30;1.08;;;14.00;99.90;;;;;;5072186;28;20052;-78
2023/08/09 01:55:05;;;;;;;6.05;1.60;;;14.00;99.90;;;;;;5040396;28;20056;-80
2023/08/09 01:57:52;;;;;;;7.75;1.40;;;14.10;99.90;;;;;;5071617;28;20514;-80
2023/08/09 02:00:38;;;;;;;4.80;1.25;;;14.10;99.90;;;;;;5069898;28;20114;-80
2023/08/09 02:03:25;;;;;;;10.15;1.10;;;14.20;99.90;;;;;;5070982;28;20052;-80
2023/08/09 02:06:11;;;;;;;5.05;0.95;;;14.30;99.90;;;;;;5071183;28;20047;-80
2023/08/09 02:08:58;;;;;;;5.20;1.25;;;14.30;99.90;;;;;;5071379;28;20408;-79
2023/08/09 02:11:44;;;;;;;4.07;0.82;;;14.40;99.90;;;;;;5071152;28;20057;-79
2023/08/09 02:14:30;;;;;;;7.20;1.23;;;14.40;99.90;;;;;;5062748;28;20079;-80
2023/08/09 02:17:16;;;;;;;5.05;1.23;;;14.40;99.90;;;;;;5050927;28;20052;-82
2023/08/09 02:20:04;;;;;;;3.30;1.10;;;14.20;99.90;;;;;;5054992;28;20052;-79
2023/08/09 02:22:50;;;;;;;7.03;1.63;;;14.10;99.90;;;;;;5070497;28;20547;-79
2023/08/09 02:25:36;;;;;;;7.32;1.40;;;14.20;99.90;;;;;;5055612;28;20105;-78
2023/08/09 02:28:22;;;;;;;5.63;1.05;;;14.30;99.90;;;;;;5070296;28;20064;-80
2023/08/09 02:31:10;;;;;;;7.50;1.48;;;14.40;99.90;;;;;;5070472;28;20396;-79
2023/08/09 02:33:57;;;;;;;8.50;1.75;;;14.40;99.90;;;;;;5069823;28;20044;-79
2023/08/09 02:36:44;;;;;;;2.97;0.90;;;14.40;99.90;;;;;;5070215;28;20068;-78
2023/08/09 02:39:31;;;;;;;5.95;1.10;;;14.50;99.90;;;;;;5069945;28;20048;-78
2023/08/09 02:42:18;;;;;;;14.10;1.27;;;14.50;99.90;;;;;;5071406;28;20404;-79
2023/08/09 02:45:06;;;;;;;10.52;1.30;;;14.50;99.90;;;;;;5071425;28;20087;-80
2023/08/09 02:47:52;;;;;;;5.47;1.08;;;14.50;99.90;;;;;;5069442;28;20044;-80
2023/08/09 02:50:38;;;;;;;6.75;1.00;;;14.50;99.90;;;;;;5071520;28;20156;-79
2023/08/09 02:53:31;;;;;;;4.55;0.90;;;14.50;99.90;;;;;;5069504;28;20408;-80
2023/08/09 02:56:17;;;;;;;5.00;1.17;;;14.50;99.90;;;;;;5056507;28;20411;-79
2023/08/09 02:59:04;;;;;;;5.18;1.15;;;14.50;99.90;;;;;;5069676;28;20044;-79
2023/08/09 03:01:50;;;;;;;3.42;0.75;;;14.50;99.90;;;;;;5051220;28;20044;-80
2023/08/09 03:04:36;;;;;;;6.15;1.40;;;14.50;99.90;;;;;;5071314;28;20048;-81
2023/08/09 03:07:24;;;;;;;4.40;1.17;;;14.60;99.90;;;;;;5070931;28;20056;-79
2023/08/09 03:10:10;;;;;;;6.10;1.00;;;14.60;99.90;;;;;;5051294;28;20106;-79
2023/08/09 03:12:56;;;;;;;3.67;0.80;;;14.60;99.90;;;;;;5053626;28;20053;-79
2023/08/09 03:15:42;;;;;;;5.25;0.95;;;14.70;99.90;;;;;;5069435;28;20055;-80
2023/08/09 03:18:28;;;;;;;8.25;0.93;;;14.60;99.90;;;;;;5069217;28;20045;-78
2023/08/09 03:21:15;;;;;;;4.15;1.15;;;14.60;99.90;;;;;;5038382;28;20083;-80
2023/08/09 03:24:01;;;;;;;5.32;1.33;;;14.60;99.90;;;;;;5051998;28;20048;-80
2023/08/09 03:26:48;;;;;;;4.90;1.67;;;14.40;99.90;;;;;;5070186;28;20055;-79
2023/08/09 03:29:34;;;;;;;6.28;1.08;;;14.30;99.90;;;;;;5069126;28;20092;-80
2023/08/09 03:32:20;;;;;;;6.03;1.15;;;14.20;99.90;;;;;;5037989;28;20143;-80
2023/08/09 03:35:07;;;;;;;5.82;1.25;;;13.90;99.90;;;;;;5051613;28;20706;-81
2023/08/09 03:37:53;;;;;;;4.97;1.15;;;13.70;99.90;;;;;;5055526;28;20155;-81
2023/08/09 03:40:40;;;;;;;6.53;1.63;;;13.60;99.90;;;;;;5054758;28;20480;-81
2023/08/09 03:43:26;;;;;;;5.57;1.35;;;13.50;99.90;;;;;;5073250;28;20048;-80
2023/08/09 03:46:13;;;;;;;6.38;1.55;;;13.30;99.90;;;;;;5073939;28;20054;-80
2023/08/09 03:48:59;;;;;;;7.25;1.35;;;13.30;99.90;;;;;;5055944;28;20049;-80
2023/08/09 03:51:45;;;;;;;5.10;1.25;;;13.10;99.90;;;;;;5059713;28;20052;-79
2023/08/09 03:54:31;;;;;;;6.00;1.38;;;13.00;99.90;;;;;;5074276;28;20087;-80
2023/08/09 03:57:18;;;;;;;10.68;2.80;;;12.90;99.90;;;;;;5074312;28;20087;-80
2023/08/09 04:00:05;;;;;;;6.53;1.13;;;12.90;99.90;;;;;;5057523;28;20510;-79
2023/08/09 04:02:52;;;;;;;6.25;1.20;;;12.80;99.90;;;;;;5054108;28;20098;-78
2023/08/09 04:05:38;;;;;;;6.10;1.90;;;12.70;99.90;;;;;;5054653;28;20393;-79
2023/08/09 04:08:26;;;;;;;10.30;1.70;;;12.70;99.90;;;;;;5054027;28;20044;-79
2023/08/09 04:11:13;;;;;;;5.65;1.77;;;12.60;99.90;;;;;;5073976;28;20130;-80
2023/08/09 04:13:59;;;;;;;4.78;1.80;;;12.50;99.90;;;;;;5073505;28;20044;-78
2023/08/09 04:16:45;;;;;;;8.75;1.52;;;12.50;99.90;;;;;;5073367;28;20052;-79
2023/08/09 04:19:32;;;;;;;5.45;1.35;;;12.40;99.90;;;;;;5057939;28;20072;-77
2023/08/09 04:22:18;;;;;;;5.90;1.55;;;12.40;99.90;;;;;;5072405;28;20048;-78
2023/08/09 04:25:05;;;;;;;7.97;1.77;;;12.40;99.90;;;;;;5054019;28;20059;-77
2023/08/09 04:27:53;;;;;;;6.63;1.77;;;12.30;99.90;;;;;;5072371;28;20053;-78
2023/08/09 04:30:39;;;;;;;7.30;1.80;;;12.30;99.90;;;;;;5059294;28;20056;-79
2023/08/09 04:33:25;;;;;;;6.15;1.63;;;12.30;99.90;;;;;;5072638;28;20044;-78
2023/08/09 04:36:18;;;;;;;5.40;1.63;;;12.30;99.90;;;;;;5072261;28;20051;-77
2023/08/09 04:39:09;;;;;;;4.15;1.20;;;12.20;99.90;;;;;;5072068;28;20373;-79
2023/08/09 04:41:55;;;;;;;7.60;1.58;;;12.20;99.90;;;;;;5055065;28;20044;-78
2023/08/09 04:44:41;;;;;;;6.85;1.67;;;12.20;99.90;;;;;;5073463;28;20078;-78
2023/08/09 04:47:27;;;;;;;4.80;1.50;;;12.20;99.90;;;;;;5073491;28;20532;-78
2023/08/09 04:50:13;;;;;;;6.72;1.45;;;12.20;99.90;;;;;;5052375;28;20183;-79
2023/08/09 04:53:00;;;;;;;4.72;1.42;;;12.20;99.90;;;;;;5070718;28;20056;-79
2023/08/09 04:55:46;;;;;;;6.90;1.77;;;12.30;99.90;;;;;;5055186;28;20060;-77
2023/08/09 04:58:32;;;;;;;8.10;1.70;;;12.30;99.90;;;;;;5071324;28;20065;-79
2023/08/09 05:01:19;;;;;;;7.68;1.90;;;12.40;99.90;;;;;;5042062;28;20052;-79
2023/08/09 05:04:05;;;;;;;6.07;1.48;;;12.40;99.90;;;;;;5070723;28;20110;-78
2023/08/09 05:06:53;;;;;;;7.88;2.33;;;12.50;99.90;;;;;;5052441;28;20055;-79
2023/08/09 05:09:39;;;;;;;7.63;1.55;;;12.60;99.90;;;;;;5053677;28;20055;-79
2023/08/09 05:12:25;;;;;;;8.18;1.48;;;12.60;99.90;;;;;;5052110;28;20147;-78
2023/08/09 05:15:11;;;;;;;8.77;2.17;;;12.70;99.90;;;;;;5072595;28;20105;-79
2023/08/09 05:17:58;;;;;;;6.80;1.30;;;12.80;99.90;;;;;;5071823;28;20076;-80
2023/08/09 05:20:45;;;;;;;7.38;1.70;;;12.80;99.90;;;;;;5055184;28;20436;-80
2023/08/09 05:23:31;;;;;;;7.22;1.70;;;12.90;99.90;;;;;;5069586;28;20040;-80
2023/08/09 05:26:17;;;;;;;18.52;2.08;;;13.00;99.90;;;;;;5072477;28;20135;-80
2023/08/09 05:29:04;;;;;;;7.35;1.50;;;13.10;99.90;;;;;;5071146;28;20381;-80
2023/08/09 05:31:50;;;;;;;6.40;1.30;;;13.10;99.90;;;;;;5071863;28;20052;-80
2023/08/09 05:34:36;;;;;;;6.93;1.10;;;13.20;99.90;;;;;;5052572;28;20051;-80
2023/08/09 05:37:23;;;;;;;5.88;1.48;;;13.30;99.90;;;;;;5052676;28;20558;-78
2023/08/09 05:40:12;;;;;;;4.53;1.30;;;13.40;99.90;;;;;;5055078;28;20135;-78
2023/08/09 05:42:59;;;;;;;5.38;1.45;;;13.50;99.90;;;;;;5056261;28;20052;-78
2023/08/09 05:45:46;;;;;;;6.45;1.20;;;13.70;99.90;;;;;;5048252;28;20056;-78
2023/08/09 05:48:32;;;;;;;13.43;1.70;;;13.80;99.90;;;;;;5070331;28;20060;-78
2023/08/09 05:51:18;;;;;;;6.35;1.15;;;13.90;99.90;;;;;;5070345;28;20052;-78
2023/08/09 05:54:05;;;;;;;6.68;1.92;;;14.00;99.90;;;;;;5053966;28;20492;-77
2023/08/09 05:56:53;;;;;;;5.15;1.02;;;14.10;99.90;;;;;;5072027;28;20041;-79
2023/08/09 05:59:39;;;;;;;9.10;1.48;;;14.20;99.90;;;;;;5053663;28;20040;-78
2023/08/09 06:02:26;;;;;;;11.57;1.60;;;14.30;99.90;;;;;;5039716;28;20048;-78
2023/08/09 06:05:45;;;;;;;7.32;1.60;;;14.50;99.90;;;;;;5070163;28;20087;-79
2023/08/09 06:08:24;;;;;;;8.65;1.98;;;14.60;99.90;;;;;;5063051;28;20109;-79
2023/08/09 06:11:10;;;;;;;7.90;1.30;;;14.80;99.90;;;;;;5051929;28;20052;-80
2023/08/09 06:13:57;;;;;;;7.53;1.02;;;14.90;99.90;;;;;;5070106;28;20048;-80
2023/08/09 06:16:47;;;;;;;10.52;1.85;;;15.00;99.90;;;;;;5071823;28;20123;-79
2023/08/09 06:19:33;;;;;;;15.63;1.67;;;15.20;99.90;;;;;;5051867;28;20381;-79
2023/08/09 06:22:20;;;;;;;15.35;3.58;;;15.30;99.90;;;;;;5071837;28;20067;-79
2023/08/09 06:25:07;;;;;;;10.43;1.20;;;15.40;99.90;;;;;;5070028;28;20487;-80
2023/08/09 06:27:54;;;;;;;4.78;1.20;;;15.60;99.90;;;;;;5069686;28;20082;-80
2023/08/09 06:30:41;;;;;;;4.80;1.45;;;15.70;99.90;;;;;;5051237;28;20041;-79
2023/08/09 06:33:30;;;;;;;8.32;1.35;;;15.90;99.90;;;;;;5071106;28;20412;-78
2023/08/09 06:36:16;;;;;;;7.13;1.33;;;16.00;99.90;;;;;;5053513;28;20048;-79
2023/08/09 06:39:02;;;;;;;4.13;1.25;;;16.10;99.90;;;;;;5070526;28;20040;-80
2023/08/09 06:41:49;;;;;;;3.92;1.40;;;16.20;99.90;;;;;;5070379;28;20052;-79
2023/08/09 06:44:35;;;;;;;6.75;1.17;;;16.30;99.90;;;;;;5051708;28;20365;-79
2023/08/09 06:47:22;;;;;;;4.43;1.35;;;16.40;99.90;;;;;;5054544;28;20060;-80
2023/08/09 06:50:09;;;;;;;5.55;1.38;;;16.50;99.90;;;;;;5068573;28;20044;-79
2023/08/09 06:52:56;;;;;;;8.05;1.10;;;16.60;99.90;;;;;;5069725;28;20167;-80
2023/08/09 06:55:42;;;;;;;5.40;1.23;;;16.80;99.90;;;;;;5055789;28;20087;-78
2023/08/09 06:58:28;;;;;;;8.82;1.83;;;17.00;99.90;;;;;;5071213;28;20044;-79
2023/08/09 07:01:14;;;;;;;3.97;1.15;;;17.10;99.90;;;;;;5069072;28;20083;-79
2023/08/09 07:04:01;;;;;;;5.57;1.10;;;17.20;99.90;;;;;;5056335;28;20048;-79
2023/08/09 07:06:47;;;;;;;8.55;1.50;;;17.30;99.90;;;;;;5072042;28;20051;-80
2023/08/09 07:09:33;;;;;;;4.43;1.00;;;17.50;99.90;;;;;;5070185;28;20052;-79
2023/08/09 07:12:20;;;;;;;4.88;1.65;;;17.60;99.90;;;;;;5070836;28;20091;-79
2023/08/09 07:15:08;;;;;;;5.10;1.27;;;17.80;99.90;;;;;;5073185;28;20049;-78
2023/08/09 07:17:55;;;;;;;3.83;1.15;;;17.90;99.90;;;;;;5043884;28;20056;-79
2023/08/09 07:20:41;;;;;;;7.72;0.95;;;18.10;99.90;;;;;;5060547;28;20053;-78
2023/08/09 07:23:27;;;;;;;4.40;1.00;;;18.30;99.90;;;;;;5073431;28;20045;-78
2023/08/09 07:26:13;;;;;;;7.95;1.20;;;18.60;99.90;;;;;;5056886;28;20147;-79
2023/08/09 07:29:00;;;;;;;4.38;0.80;;;18.70;99.90;;;;;;5057019;28;20106;-78
2023/08/09 07:31:47;;;;;;;5.05;1.40;;;18.90;99.90;;;;;;5072716;28;20115;-78
2023/08/09 07:34:33;;;;;;;4.80;0.88;;;19.00;99.90;;;;;;5055481;28;20052;-78
2023/08/09 07:37:20;;;;;;;8.13;1.52;;;19.10;99.90;;;;;;5074145;28;20068;-79
2023/08/09 07:40:08;;;;;;;8.57;2.13;;;19.20;99.90;;;;;;5073020;28;20056;-78
2023/08/09 07:42:55;;;;;;;5.90;1.42;;;19.20;99.90;;;;;;5054236;28;20106;-79
2023/08/09 07:45:45;;;;;;;5.00;1.48;;;19.30;99.90;;;;;;5072563;28;20145;-80
2023/08/09 07:48:33;;;;;;;4.43;1.02;;;19.30;99.90;;;;;;5067100;28;20088;-79
2023/08/09 07:51:19;;;;;;;4.63;1.10;;;19.40;99.90;;;;;;5057405;28;20442;-78
2023/08/09 07:54:05;;;;;;;4.07;0.90;;;19.60;99.90;;;;;;5054587;28;20131;-78
2023/08/09 07:56:51;;;;;;;9.68;1.67;;;19.70;99.90;;;;;;5059649;28;20482;-78
2023/08/09 07:59:38;;;;;;;10.15;1.33;;;19.80;99.90;;;;;;5055944;28;20064;-77
2023/08/09 08:02:24;;;;;;;5.82;1.20;;;19.90;99.90;;;;;;5073100;28;20051;-79
2023/08/09 08:05:11;;;;;;;6.68;1.13;;;19.90;99.90;;;;;;5027394;28;20049;-77
2023/08/09 08:07:58;;;;;;;3.33;0.90;;;20.00;99.90;;;;;;5073879;28;20118;-78
2023/08/09 08:10:44;;;;;;;9.52;2.03;;;20.20;99.90;;;;;;5072418;28;20055;-78
2023/08/09 08:13:31;;;;;;;7.18;1.20;;;20.20;99.90;;;;;;5072892;28;20445;-78
2023/08/09 08:16:17;;;;;;;5.97;1.40;;;20.40;99.90;;;;;;5072274;28;20579;-79
2023/08/09 08:19:04;;;;;;;4.45;1.00;;;20.70;99.50;;;;;;5071798;28;20523;-79
2023/08/09 08:21:50;;;;;;;5.72;1.15;;;20.70;99.50;;;;;;5055655;28;20052;-79
2023/08/09 08:24:36;;;;;;;6.15;0.90;;;20.70;99.20;;;;;;5042438;28;20480;-79
2023/08/09 08:27:22;;;;;;;4.80;1.55;;;20.70;98.80;;;;;;5070292;28;20482;-79
2023/08/09 08:30:09;;;;;;;2.42;0.80;;;20.70;98.20;;;;;;5055471;28;20049;-79
2023/08/09 08:32:56;;;;;;;3.45;1.23;;;20.70;98.50;;;;;;5073119;28;20136;-80
2023/08/09 08:35:48;;;;;;;5.55;0.90;;;20.80;98.70;;;;;;5053251;28;20501;-79
2023/08/09 08:38:34;;;;;;;5.43;1.20;;;20.90;98.60;;;;;;5071699;28;20044;-79
2023/08/09 08:41:21;;;;;;;5.10;1.30;;;21.00;98.70;;;;;;5056988;28;20067;-79
2023/08/09 08:44:08;;;;;;;6.00;0.90;;;21.10;98.70;;;;;;5071171;28;20487;-79
2023/08/09 08:46:57;;;;;;;4.00;1.10;;;21.30;98.80;;;;;;5071340;28;20084;-79
2023/08/09 08:49:48;;;;;;;6.63;1.05;;;21.50;98.70;;;;;;5053062;28;20052;-79
2023/08/09 08:52:38;;;;;;;7.88;1.42;;;21.50;98.40;;;;;;5071649;28;20048;-79
2023/08/09 08:55:24;;;;;;;5.93;1.25;;;21.60;98.40;;;;;;5054833;28;20071;-80
2023/08/09 08:58:12;;;;;;;5.65;1.38;;;21.30;98.70;;;;;;5041584;28;20738;-79
2023/08/09 09:00:59;;;;;;;4.10;0.80;;;21.60;98.80;;;;;;5039243;28;20052;-78
2023/08/09 09:03:46;;;;;;;4.70;1.15;;;22.00;98.50;;;;;;5071230;28;20048;-79
2023/08/09 09:06:32;;;;;;;7.05;1.38;;;21.80;97.80;;;;;;5071116;28;20044;-78
2023/08/09 09:09:20;;;;;;;6.32;1.33;;;21.70;97.40;;;;;;5041065;28;20055;-78
2023/08/09 09:12:07;;;;;;;7.38;1.40;;;21.90;97.10;;;;;;5070790;28;20049;-79
2023/08/09 09:14:54;;;;;;;6.95;1.10;;;21.80;97.10;;;;;;5070914;28;20424;-80
2023/08/09 09:17:42;;;;;;;6.55;1.40;;;21.80;97.10;;;;;;5070969;28;20083;-77
2023/08/09 09:20:33;;;;;;;7.68;1.35;;;21.90;97.00;;;;;;5070554;28;20510;-78
2023/08/09 09:23:30;;;;;;;4.00;1.05;;;22.20;96.90;;;;;;5072311;28;20457;-78
2023/08/09 09:26:18;;;;;;;5.15;1.02;;;22.30;96.90;;;;;;5070711;28;20044;-78
2023/08/09 09:29:09;;;;;;;5.95;0.90;;;22.20;97.00;;;;;;5054281;28;20179;-80
2023/08/09 09:31:59;;;;;;;5.28;1.10;;;22.30;97.30;;;;;;5070223;28;20044;-79
2023/08/09 09:34:45;;;;;;;5.88;1.30;;;22.50;96.50;;;;;;5052169;28;20048;-79
2023/08/09 09:37:32;;;;;;;8.10;1.10;;;22.10;97.00;;;;;;5071632;28;20159;-79
2023/08/09 09:40:28;;;;;;;7.22;1.10;;;22.10;97.60;;;;;;5070372;28;20044;-77
2023/08/09 09:43:15;;;;;;;4.55;0.90;;;22.20;97.20;;;;;;5070082;28;20396;-78
2023/08/09 09:46:01;;;;;;;5.85;1.50;;;21.90;97.20;;;;;;5071459;28;20048;-78
2023/08/09 09:48:49;;;;;;;4.22;1.08;;;21.60;97.50;;;;;;5052722;28;20101;-79
2023/08/09 09:51:35;;;;;;;5.65;1.05;;;21.60;97.40;;;;;;5053665;28;20044;-78
2023/08/09 09:54:23;;;;;;;5.57;1.00;;;22.00;97.20;;;;;;5055491;28;20067;-79
2023/08/09 09:57:09;;;;;;;6.78;1.35;;;21.60;96.90;;;;;;5052740;28;20052;-77
2023/08/09 09:59:59;;;;;;;4.00;1.20;;;21.20;97.20;;;;;;5039579;28;20048;-78
2023/08/09 10:02:47;;;;;;;4.22;0.77;;;21.30;97.90;;;;;;5052760;28;20055;-77
2023/08/09 10:05:39;;;;;;;7.22;1.20;;;21.30;97.50;;;;;;5069777;28;20527;-78
2023/08/09 10:08:29;;;;;;;3.92;1.15;;;21.60;96.70;;;;;;5069939;28;20116;-79
2023/08/09 10:11:16;;;;;;;6.05;0.82;;;21.30;96.80;;;;;;5052743;28;20114;-79
2023/08/09 10:14:05;;;;;;;4.03;1.08;;;21.20;97.10;;;;;;5051183;28;20048;-76
2023/08/09 10:16:52;;;;;;;4.57;2.08;;;21.20;97.60;;;;;;5055929;28;20453;-76
2023/08/09 10:19:39;;;;;;;8.80;1.52;;;21.30;96.80;;;;;;5069995;28;20774;-77
2023/08/09 10:22:26;;;;;;;2.45;0.80;;;21.60;96.70;;;;;;5052649;28;20488;-76
2023/08/09 10:25:13;;;;;;;4.18;0.95;;;22.10;96.50;;;;;;5071301;28;20071;-77
2023/08/09 10:28:01;;;;;;;4.10;1.05;;;22.20;96.10;;;;;;5069646;28;20071;-76
2023/08/09 10:30:49;;;;;;;4.05;0.90;;;22.50;95.70;;;;;;5051275;28;20413;-76
2023/08/09 10:33:35;;;;;;;7.22;1.20;;;22.60;95.30;;;;;;5071278;28;20051;-76
2023/08/09 10:36:32;;;;;;;6.43;1.10;;;22.40;95.10;;;;;;5070088;28;20055;-77
2023/08/09 10:39:19;;;;;;;4.55;0.82;;;22.70;95.20;;;;;;5054338;28;20493;-77
2023/08/09 10:42:08;;;;;;;6.63;1.10;;;22.50;94.60;;;;;;5071337;28;20044;-77
2023/08/09 10:45:03;;;;;;;3.25;0.82;;;22.60;94.50;;;;;;5071033;28;20135;-76
2023/08/09 10:47:49;;;;;;;6.65;1.33;;;23.00;93.90;;;;;;5054528;28;20048;-77
2023/08/09 10:50:36;;;;;;;4.53;1.10;;;23.30;94.40;;;;;;5073696;28;20507;-77
2023/08/09 10:53:22;;;;;;;5.22;0.93;;;23.20;93.40;;;;;;5075056;28;20495;-77
2023/08/09 10:56:37;;;;;;;10.05;1.05;;;23.40;93.90;;;;;;5073748;28;20088;-78
2023/08/09 10:59:25;;;;;;;6.88;1.27;;;23.20;93.90;;;;;;5056971;28;20053;-79
2023/08/09 11:02:16;;;;;;;3.78;1.08;;;23.60;94.00;;;;;;5074160;28;20052;-78
2023/08/09 11:05:02;;;;;;;7.82;1.45;;;24.00;94.00;;;;;;5072386;28;20105;-78
2023/08/09 11:07:55;;;;;;;4.60;1.00;;;24.40;93.90;;;;;;5074624;28;20052;-78
2023/08/09 11:10:41;;;;;;;3.25;0.90;;;24.80;94.30;;;;;;5055221;28;20486;-78
2023/08/09 11:13:29;;;;;;;7.05;0.95;;;25.00;93.20;;;;;;5044053;28;20056;-79
2023/08/09 11:16:16;;;;;;;5.95;1.80;;;25.20;91.90;;;;;;5073684;28;20563;-77
2023/08/09 11:19:08;;;;;;;5.63;1.92;;;25.30;91.50;;;;;;5054441;28;20496;-77
2023/08/09 11:21:56;;;;;;;5.90;1.20;;;24.90;90.80;;;;;;5072928;28;20072;-78
2023/08/09 11:24:42;;;;;;;3.70;0.90;;;24.70;92.10;;;;;;5050093;28;20049;-78
2023/08/09 11:27:29;;;;;;;5.45;1.10;;;24.70;92.20;;;;;;5060092;28;20098;-78
2023/08/09 11:30:15;;;;;;;7.07;1.45;;;24.80;90.90;;;;;;5056850;28;20048;-79
2023/08/09 11:33:04;;;;;;;6.70;1.38;;;25.20;91.80;;;;;;5073853;28;20053;-78
2023/08/09 11:35:50;;;;;;;9.98;1.55;;;25.30;92.70;;;;;;5072798;28;20045;-79
2023/08/09 11:38:36;;;;;;;6.82;1.60;;;25.30;93.10;;;;;;5067370;28;20056;-76
2023/08/09 11:41:24;;;;;;;7.18;1.70;;;25.20;93.00;;;;;;5072703;28;20045;-78
2023/08/09 11:44:13;;;;;;;7.10;1.40;;;25.30;93.50;;;;;;5055070;28;20056;-77
2023/08/09 11:47:01;;;;;;;7.93;1.65;;;25.10;93.40;;;;;;5041331;28;20070;-77
2023/08/09 11:49:47;;;;;;;13.60;2.08;;;24.60;93.90;;;;;;5054739;28;20091;-78
2023/08/09 11:52:33;;;;;;;15.48;3.28;;;24.60;94.70;;;;;;5074090;28;20064;-77
2023/08/09 11:55:21;;;;;;;16.38;2.30;;;24.90;95.30;;;;;;5054705;28;20048;-78
2023/08/09 11:58:07;;;;;;;11.98;2.10;;;24.80;95.30;;;;;;5073660;28;20048;-77
2023/08/09 12:00:53;;;;;;;14.05;2.33;;;25.10;95.40;;;;;;5072152;28;20056;-77
2023/08/09 12:03:40;;;;;;;6.40;1.98;;;25.30;94.60;;;;;;5072019;28;20135;-78
2023/08/09 12:06:39;;;;;;;12.40;2.13;;;25.30;95.10;;;;;;5055506;28;20052;-78
2023/08/09 12:09:35;;;;;;;13.80;2.33;;;25.30;94.60;;;;;;5053377;28;20527;-78
2023/08/09 12:12:39;;;;;;;8.48;2.17;;;25.30;93.70;;;;;;5053676;28;20044;-77
2023/08/09 12:15:26;;;;;;;9.20;1.65;;;25.40;94.80;;;;;;5073013;28;20772;-77
2023/08/09 12:18:12;;;;;;;6.40;1.80;;;25.70;94.30;;;;;;5071875;28;20545;-77
2023/08/09 12:20:59;;;;;;;11.15;2.00;;;25.80;94.00;;;;;;5071818;28;20063;-77
2023/08/09 12:23:45;;;;;;;9.93;2.65;;;25.90;93.50;;;;;;5071917;28;20079;-78
2023/08/09 12:26:32;;;;;;;11.05;1.83;;;25.70;93.20;;;;;;5053456;28;20041;-78
2023/08/09 12:29:18;;;;;;;11.75;1.98;;;25.90;93.40;;;;;;5071105;28;20132;-77
2023/08/09 12:32:05;;;;;;;8.88;1.90;;;26.20;92.90;;;;;;5057182;28;20052;-77
2023/08/09 12:34:51;;;;;;;10.75;1.70;;;26.20;92.50;;;;;;5072782;28;20045;-77
2023/08/09 12:37:37;;;;;;;15.00;2.10;;;26.40;92.50;;;;;;5071519;28;20048;-77
2023/08/09 12:40:24;;;;;;;15.73;1.70;;;26.50;91.90;;;;;;5071523;28;20090;-78
2023/08/09 12:43:10;;;;;;;11.07;1.75;;;26.90;92.10;;;;;;5054952;28;20393;-76
2023/08/09 12:45:56;;;;;;;7.38;1.45;;;26.90;91.80;;;;;;5072602;28;20040;-77
2023/08/09 12:48:42;;;;;;;7.57;2.00;;;27.00;91.90;;;;;;5065297;28;20092;-77
2023/08/09 12:51:29;;;;;;;7.07;1.42;;;27.60;91.80;;;;;;5072518;28;20056;-78
2023/08/09 12:54:16;;;;;;;10.95;2.20;;;27.60;91.50;;;;;;5072819;28;20164;-78
2023/08/09 12:57:02;;;;;;;6.63;1.35;;;27.90;90.80;;;;;;5058496;28;20049;-78
2023/08/09 12:59:48;;;;;;;8.00;1.85;;;27.80;90.30;;;;;;5069998;28;20086;-78
2023/08/09 13:02:35;;;;;;;8.75;1.45;;;28.10;90.00;;;;;;5058558;28;20098;-78
2023/08/09 13:05:21;;;;;;;6.47;1.50;;;28.30;89.00;;;;;;5072720;28;20512;-78
2023/08/09 13:08:07;;;;;;;8.27;1.48;;;28.30;90.50;;;;;;5071803;28;20087;-77
2023/08/09 13:10:53;;;;;;;8.00;1.70;;;28.10;90.10;;;;;;5072180;28;20071;-77
2023/08/09 13:13:40;;;;;;;8.35;1.63;;;28.40;89.70;;;;;;5071756;28;20048;-76
2023/08/09 13:16:26;;;;;;;7.75;1.20;;;28.60;89.30;;;;;;5052926;28;20059;-77
2023/08/09 13:19:12;;;;;;;9.07;1.98;;;28.50;88.80;;;;;;5072003;28;20040;-77
2023/08/09 13:21:58;;;;;;;8.43;1.92;;;29.20;87.30;;;;;;5054484;28;20408;-78
2023/08/09 13:24:45;;;;;;;7.55;1.60;;;29.10;86.90;;;;;;5052983;28;20058;-77
2023/08/09 13:27:31;;;;;;;9.57;1.77;;;28.60;84.70;;;;;;5054398;28;20048;-77
2023/08/09 13:30:17;;;;;;;7.30;1.77;;;28.90;85.10;;;;;;5072147;28;20118;-78
2023/08/09 13:33:03;;;;;;;8.68;2.10;;;29.70;85.70;;;;;;5054309;28;20488;-77
2023/08/09 13:35:49;;;;;;;15.85;1.92;;;30.00;83.00;;;;;;5026658;28;20455;-77
2023/08/09 13:38:40;;;;;;;10.80;1.60;;;30.00;83.50;;;;;;5070295;28;20052;-77
2023/08/09 13:41:26;;;;;;;11.43;1.98;;;30.40;82.00;;;;;;5072035;28;20087;-77
2023/08/09 13:44:13;;;;;;;9.07;1.67;;;30.40;81.30;;;;;;5043555;28;20048;-78
2023/08/09 13:46:59;;;;;;;6.22;2.03;;;30.80;81.30;;;;;;5071137;28;20053;-77
2023/08/09 13:49:45;;;;;;;8.75;2.30;;;31.30;80.60;;;;;;5054966;28;20053;-77
2023/08/09 13:52:31;;;;;;;9.82;1.70;;;31.40;79.70;;;;;;5070848;28;20131;-77
2023/08/09 13:55:17;;;;;;;7.30;1.63;;;31.90;79.00;;;;;;5071704;28;20049;-77
2023/08/09 13:58:04;;;;;;;5.53;1.30;;;32.00;77.10;;;;;;5071948;28;20427;-77
2023/08/09 14:00:50;;;;;;;6.35;1.52;;;32.00;76.20;;;;;;5053268;28;20109;-77
2023/08/09 14:03:36;;;;;;;6.43;1.30;;;32.10;74.00;;;;;;5051988;28;20496;-78
2023/08/09 14:06:22;;;;;;;6.32;1.58;;;32.40;73.90;;;;;;5071552;28;20652;-78
2023/08/09 14:09:09;;;;;;;5.80;1.30;;;32.80;74.70;;;;;;5071251;28;20044;-78
2023/08/09 14:11:55;;;;;;;7.00;1.50;;;33.10;72.40;;;;;;5069916;28;20049;-77
2023/08/09 14:14:41;;;;;;;7.68;1.63;;;33.30;70.70;;;;;;5070292;28;20560;-78
2023/08/09 14:17:28;;;;;;;5.70;1.67;;;33.40;69.70;;;;;;5070023;28;20056;-76
2023/08/09 14:20:16;;;;;;;10.23;1.95;;;33.00;69.40;;;;;;5069574;28;20059;-76
2023/08/09 14:23:03;;;;;;;6.30;1.52;;;33.00;69.20;;;;;;5053810;28;20119;-78
2023/08/09 14:25:49;;;;;;;8.27;1.40;;;33.00;69.20;;;;;;5069976;28;20047;-78
2023/08/09 14:28:35;;;;;;;8.23;1.20;;;32.70;69.60;;;;;;5071111;28;20519;-78